createdAt,value
2023-02-06T00:01:13.995Z,1.00
2023-02-06T00:03:40.920Z,0.90
2023-02-06T00:06:07.854Z,0.90
2023-02-06T00:08:34.860Z,0.90
2023-02-06T00:11:10.966Z,0.90
2023-02-06T00:13:38.191Z,0.80
2023-02-06T00:16:05.533Z,0.90
2023-02-06T00:18:32.449Z,0.80
2023-02-06T00:20:59.200Z,0.80
2023-02-06T00:23:25.867Z,0.80
2023-02-06T00:25:52.575Z,0.90
2023-02-06T00:28:19.369Z,1.00
2023-02-06T00:30:47.433Z,1.00
2023-02-06T00:33:14.434Z,1.00
2023-02-06T00:35:41.498Z,1.00
2023-02-06T00:38:12.593Z,1.00
2023-02-06T00:40:39.440Z,1.00
2023-02-06T00:43:06.210Z,1.00
2023-02-06T00:45:33.702Z,0.90
2023-02-06T00:48:01.069Z,0.90
2023-02-06T00:52:55.097Z,0.80
2023-02-06T00:55:21.819Z,0.70
2023-02-06T00:57:48.574Z,0.60
2023-02-06T01:00:15.842Z,0.60
2023-02-06T01:02:42.692Z,0.60
2023-02-06T01:05:09.640Z,0.60
2023-02-06T01:07:40.280Z,0.60
2023-02-06T01:10:08.179Z,0.50
2023-02-06T01:12:36.268Z,0.50
2023-02-06T01:15:05.297Z,0.40
2023-02-06T01:17:33.284Z,0.30
2023-02-06T01:20:00.311Z,0.30
2023-02-06T01:22:30.160Z,0.30
2023-02-06T01:24:56.863Z,0.40
2023-02-06T01:27:23.592Z,0.40
2023-02-06T01:29:50.292Z,0.40
2023-02-06T01:34:45.518Z,0.30
2023-02-06T01:39:39.402Z,0.20
2023-02-06T01:42:06.187Z,0.20
2023-02-06T01:44:33.916Z,0.10
2023-02-06T01:47:00.616Z,0.10
2023-02-06T01:49:35.695Z,0.00
2023-02-06T01:52:30.354Z,0.00
2023-02-06T01:55:03.184Z,0.00
2023-02-06T01:57:31.204Z,0.00
2023-02-06T02:00:03.003Z,0.00
2023-02-06T02:02:31.709Z,0.10
2023-02-06T02:04:59.930Z,0.10
2023-02-06T02:07:32.041Z,0.00
2023-02-06T02:09:58.776Z,-0.10
2023-02-06T02:12:25.488Z,-0.10
2023-02-06T02:14:53.771Z,-0.10
2023-02-06T02:17:41.948Z,-0.20
2023-02-06T02:20:27.243Z,-0.10
2023-02-06T02:23:12.508Z,-0.10
2023-02-06T02:26:01.588Z,-0.20
2023-02-06T02:28:40.249Z,-0.30
2023-02-06T02:31:33.977Z,-0.40
2023-02-06T02:34:00.649Z,-0.30
2023-02-06T02:36:48.254Z,-0.30
2023-02-06T02:39:20.859Z,-0.30
2023-02-06T02:42:00.178Z,-0.30
2023-02-06T02:44:32.605Z,-0.40
2023-02-06T02:47:04.008Z,-0.50
2023-02-06T02:49:34.627Z,-0.50
2023-02-06T02:52:02.041Z,-0.40
2023-02-06T02:54:28.770Z,-0.50
2023-02-06T02:57:06.102Z,-0.50
2023-02-06T02:59:37.794Z,-0.40
2023-02-06T03:02:15.860Z,-0.50
2023-02-06T03:04:47.873Z,-0.50
2023-02-06T03:07:48.644Z,-0.40
2023-02-06T03:10:20.723Z,-0.40
2023-02-06T03:13:21.001Z,-0.50
2023-02-06T03:16:02.672Z,-0.50
2023-02-06T03:18:44.422Z,-0.60
2023-02-06T03:21:16.307Z,-0.70
2023-02-06T03:23:46.025Z,-0.70
2023-02-06T03:26:19.199Z,-0.60
2023-02-06T03:28:51.482Z,-0.60
2023-02-06T03:31:36.237Z,-0.70
2023-02-06T03:34:13.959Z,-0.60
2023-02-06T03:36:41.074Z,-0.50
2023-02-06T03:39:07.926Z,-0.50
2023-02-06T03:41:38.236Z,-0.50
2023-02-06T03:44:09.632Z,-0.50
2023-02-06T03:46:38.636Z,-0.50
2023-02-06T03:49:08.445Z,-0.60
2023-02-06T03:51:45.977Z,-0.70
2023-02-06T03:54:16.964Z,-0.80
2023-02-06T03:56:46.152Z,-0.80
2023-02-06T03:59:13.341Z,-0.80
2023-02-06T04:01:44.537Z,-0.80
2023-02-06T04:04:14.045Z,-0.80
2023-02-06T04:06:40.926Z,-0.80
2023-02-06T04:09:07.702Z,-0.80
2023-02-06T04:11:34.481Z,-0.70
2023-02-06T04:14:01.195Z,-0.70
2023-02-06T04:16:28.124Z,-0.70
2023-02-06T04:18:54.870Z,-0.80
2023-02-06T04:21:21.822Z,-0.90
2023-02-06T04:23:48.508Z,-0.90
2023-02-06T04:26:15.283Z,-0.90
2023-02-06T04:28:42.053Z,-0.90
2023-02-06T04:31:08.949Z,-0.80
2023-02-06T04:36:02.855Z,-0.80
2023-02-06T04:38:29.637Z,-0.80
2023-02-06T04:41:05.378Z,-0.80
2023-02-06T04:43:33.303Z,-0.90
2023-02-06T04:46:00.246Z,-0.90
2023-02-06T04:50:54.193Z,-0.80
2023-02-06T05:05:36.970Z,-0.80
2023-02-06T05:08:03.865Z,-0.70
2023-02-06T05:10:30.646Z,-0.70
2023-02-06T05:12:57.356Z,-0.70
2023-02-06T05:15:24.126Z,-0.60
2023-02-06T05:17:50.916Z,-0.60
2023-02-06T05:20:26.494Z,-0.60
2023-02-06T05:22:53.280Z,-0.60
2023-02-06T05:25:20.094Z,-0.70
2023-02-06T05:27:46.884Z,-0.70
2023-02-06T05:30:14.374Z,-0.60
2023-02-06T05:32:41.370Z,-0.60
2023-02-06T05:35:08.316Z,-0.50
2023-02-06T05:37:37.142Z,-0.50
2023-02-06T05:42:31.229Z,-0.30
2023-02-06T05:44:58.013Z,-0.30
2023-02-06T05:47:26.085Z,-0.20
2023-02-06T05:49:52.855Z,-0.20
2023-02-06T05:52:19.645Z,-0.10
2023-02-06T05:59:40.692Z,-0.10
2023-02-06T06:02:07.472Z,0.00
2023-02-06T06:07:01.562Z,0.10
2023-02-06T06:09:28.389Z,0.20
2023-02-06T06:11:55.226Z,0.20
2023-02-06T06:14:22.015Z,0.20
2023-02-06T06:16:48.799Z,0.20
2023-02-06T06:19:15.552Z,0.30
2023-02-06T06:24:09.629Z,0.30
2023-02-06T06:26:36.368Z,0.30
2023-02-06T06:29:03.445Z,0.40
2023-02-06T06:31:30.184Z,0.40
2023-02-06T06:33:57.048Z,0.40
2023-02-06T06:38:50.951Z,0.50
2023-02-06T06:41:17.756Z,0.50
2023-02-06T06:43:44.501Z,0.60
2023-02-06T06:46:11.317Z,0.60
2023-02-06T06:48:38.487Z,0.70
2023-02-06T06:51:06.226Z,0.70
2023-02-06T06:56:07.945Z,0.60
2023-02-06T06:58:34.887Z,0.60
2023-02-06T07:01:02.457Z,0.60
2023-02-06T07:03:29.278Z,0.60
2023-02-06T07:05:55.994Z,0.70
2023-02-06T07:08:22.850Z,0.60
2023-02-06T07:10:49.638Z,0.70
2023-02-06T07:13:17.741Z,0.60
2023-02-06T07:15:44.454Z,0.50
2023-02-06T07:18:11.954Z,0.50
2023-02-06T07:20:38.988Z,0.50
2023-02-06T07:23:06.030Z,0.60
2023-02-06T07:25:33.381Z,0.60
2023-02-06T07:28:00.199Z,0.60
2023-02-06T07:30:26.996Z,0.60
2023-02-06T07:32:53.790Z,0.60
2023-02-06T07:35:20.493Z,0.70
2023-02-06T07:37:47.379Z,0.70
2023-02-06T07:40:14.119Z,0.70
2023-02-06T07:42:41.053Z,0.70
2023-02-06T07:45:08.197Z,0.70
2023-02-06T07:47:34.962Z,0.60
2023-02-06T07:50:01.974Z,0.70
2023-02-06T07:52:28.645Z,0.70
2023-02-06T07:54:55.414Z,0.70
2023-02-06T07:57:22.478Z,0.70
2023-02-06T07:59:49.270Z,0.80
2023-02-06T08:02:16.005Z,0.80
2023-02-06T08:04:43.010Z,0.80
2023-02-06T08:07:14.728Z,0.70
2023-02-06T08:09:42.062Z,0.80
2023-02-06T08:12:10.944Z,0.80
2023-02-06T08:17:05.831Z,0.90
2023-02-06T08:19:32.551Z,0.90
2023-02-06T08:21:59.293Z,1.00
2023-02-06T08:24:26.070Z,0.90
2023-02-06T08:26:52.768Z,1.00
2023-02-06T08:29:19.624Z,1.00
2023-02-06T08:31:46.687Z,1.10
2023-02-06T08:34:14.794Z,1.10
2023-02-06T08:36:43.578Z,1.10
2023-02-06T08:39:13.724Z,1.10
2023-02-06T08:41:42.631Z,1.10
2023-02-06T08:44:16.742Z,1.10
2023-02-06T08:46:45.588Z,1.20
2023-02-06T08:49:15.192Z,1.10
2023-02-06T08:51:42.055Z,1.20
2023-02-06T08:54:12.387Z,1.30
2023-02-06T08:56:39.646Z,1.30
2023-02-06T08:59:07.561Z,1.30
2023-02-06T09:01:36.765Z,1.30
2023-02-06T09:04:06.968Z,1.40
2023-02-06T09:06:39.925Z,1.50
2023-02-06T09:09:08.187Z,1.40
2023-02-06T09:11:35.437Z,1.40
2023-02-06T09:14:03.895Z,1.50
2023-02-06T09:16:33.457Z,1.60
2023-02-06T09:19:01.492Z,1.60
2023-02-06T09:21:30.920Z,1.50
2023-02-06T09:24:00.755Z,1.50
2023-02-06T09:26:33.433Z,1.60
2023-02-06T09:29:02.997Z,1.60
2023-02-06T09:31:33.522Z,1.70
2023-02-06T09:34:00.433Z,1.70
2023-02-06T09:36:28.516Z,1.70
2023-02-06T09:41:26.740Z,1.70
2023-02-06T09:44:01.433Z,1.70
2023-02-06T09:46:32.885Z,1.70
2023-02-06T09:49:05.999Z,1.70
2023-02-06T09:51:56.283Z,1.80
2023-02-06T09:54:43.680Z,1.90
2023-02-06T09:57:31.544Z,1.90
2023-02-06T10:00:28.627Z,2.00
2023-02-06T10:03:10.310Z,2.00
2023-02-06T10:05:47.758Z,2.10
2023-02-06T10:08:37.506Z,2.10
2023-02-06T10:11:28.043Z,2.20
2023-02-06T10:14:00.050Z,2.30
2023-02-06T10:16:54.676Z,2.30
2023-02-06T10:19:48.148Z,2.30
2023-02-06T10:22:31.432Z,2.30
2023-02-06T10:25:16.456Z,2.30
2023-02-06T10:27:45.658Z,2.30
2023-02-06T10:30:22.410Z,2.40
2023-02-06T10:33:25.260Z,2.40
2023-02-06T10:36:07.805Z,2.40
2023-02-06T10:39:01.181Z,2.50
2023-02-06T10:41:36.720Z,2.50
2023-02-06T10:44:12.341Z,2.60
2023-02-06T10:46:43.548Z,2.60
2023-02-06T10:49:38.715Z,2.60
2023-02-06T10:52:27.215Z,2.60
2023-02-06T10:54:57.715Z,2.70
2023-02-06T10:57:28.530Z,2.70
2023-02-06T11:00:00.060Z,2.80
2023-02-06T11:02:38.965Z,2.80
2023-02-06T11:05:08.296Z,2.80
2023-02-06T11:07:42.463Z,2.90
2023-02-06T11:10:14.885Z,2.90
2023-02-06T11:12:48.746Z,2.90
2023-02-06T11:17:44.916Z,3.00
2023-02-06T11:20:25.560Z,3.00
2023-02-06T11:22:53.638Z,3.00
2023-02-06T11:25:31.329Z,3.10
2023-02-06T11:27:59.715Z,3.10
2023-02-06T11:30:36.857Z,3.20
2023-02-06T11:33:42.233Z,3.20
2023-02-06T11:36:28.708Z,3.20
2023-02-06T11:39:05.304Z,3.30
2023-02-06T11:41:32.880Z,3.30
2023-02-06T11:44:06.579Z,3.40
2023-02-06T11:46:35.700Z,3.50
2023-02-06T11:49:21.891Z,3.50
2023-02-06T11:51:53.949Z,3.50
2023-02-06T11:54:35.339Z,3.60
2023-02-06T11:57:18.884Z,3.70
2023-02-06T11:59:55.871Z,3.70
2023-02-06T12:02:28.282Z,3.70
2023-02-06T12:05:12.952Z,3.70
2023-02-06T12:08:02.682Z,3.70
2023-02-06T12:10:34.118Z,3.80
2023-02-06T12:13:08.969Z,3.80
2023-02-06T12:15:53.331Z,3.90
2023-02-06T12:18:40.320Z,3.90
2023-02-06T12:21:48.582Z,3.90
2023-02-06T12:24:25.840Z,4.00
2023-02-06T12:26:55.194Z,3.90
2023-02-06T12:29:44.821Z,4.00
2023-02-06T12:32:18.501Z,4.00
2023-02-06T12:34:56.249Z,4.00
2023-02-06T12:37:47.738Z,4.10
2023-02-06T12:40:23.534Z,4.20
2023-02-06T12:43:09.458Z,4.20
2023-02-06T12:46:02.135Z,4.20
2023-02-06T12:48:35.321Z,4.30
2023-02-06T12:51:29.934Z,4.30
2023-02-06T12:54:00.762Z,4.40
2023-02-06T12:56:45.705Z,4.40
2023-02-06T12:59:12.387Z,4.40
2023-02-06T13:02:00.974Z,4.40
2023-02-06T13:04:32.093Z,4.50
2023-02-06T13:07:09.521Z,4.50
2023-02-06T13:09:48.420Z,4.60
2023-02-06T13:12:24.187Z,4.60
2023-02-06T13:15:20.216Z,4.60
2023-02-06T13:17:46.964Z,4.60
2023-02-06T13:20:19.620Z,4.60
2023-02-06T13:25:25.744Z,4.70
2023-02-06T13:27:53.621Z,4.70
2023-02-06T13:30:29.597Z,4.60
2023-02-06T13:32:58.940Z,4.70
2023-02-06T13:35:30.629Z,4.80
2023-02-06T13:38:24.511Z,4.80
2023-02-06T13:41:27.747Z,4.80
2023-02-06T13:44:05.151Z,4.80
2023-02-06T13:47:11.808Z,4.80
2023-02-06T13:49:59.361Z,4.70
2023-02-06T13:52:34.931Z,4.70
2023-02-06T13:55:28.978Z,4.70
2023-02-06T13:58:40.942Z,4.70
2023-02-06T14:01:20.188Z,4.70
2023-02-06T14:03:49.785Z,4.70
2023-02-06T14:06:46.102Z,4.70
2023-02-06T14:09:55.095Z,4.60
2023-02-06T14:12:34.184Z,4.60
2023-02-06T14:15:00.877Z,4.60
2023-02-06T14:17:46.446Z,4.60
2023-02-06T14:20:50.562Z,4.60
2023-02-06T14:23:38.563Z,4.60
2023-02-06T14:26:10.493Z,4.60
2023-02-06T14:29:14.453Z,4.50
2023-02-06T14:32:02.299Z,4.50
2023-02-06T14:34:53.322Z,4.50
2023-02-06T14:38:01.263Z,4.50
2023-02-06T14:40:33.606Z,4.40
2023-02-06T14:43:04.889Z,4.50
2023-02-06T14:45:42.179Z,4.60
2023-02-06T14:48:18.487Z,4.70
2023-02-06T14:50:50.734Z,4.70
2023-02-06T14:53:38.923Z,4.70
2023-02-06T14:56:12.315Z,4.90
2023-02-06T14:58:39.052Z,4.90
2023-02-06T15:01:17.744Z,4.80
2023-02-06T15:03:49.400Z,4.90
2023-02-06T15:06:37.695Z,4.90
2023-02-06T15:09:05.817Z,5.00
2023-02-06T15:11:33.790Z,5.20
2023-02-06T15:14:18.917Z,5.40
2023-02-06T15:16:47.705Z,5.40
2023-02-06T15:19:20.741Z,5.40
2023-02-06T15:21:49.128Z,5.50
2023-02-06T15:24:37.706Z,5.40
2023-02-06T15:27:25.384Z,5.40
2023-02-06T15:29:52.968Z,5.30
2023-02-06T15:32:37.751Z,5.20
2023-02-06T15:35:25.728Z,5.10
2023-02-06T15:37:53.975Z,5.10
2023-02-06T15:40:31.950Z,5.00
2023-02-06T15:42:59.780Z,4.90
2023-02-06T15:45:30.931Z,4.90
2023-02-06T15:48:07.329Z,4.80
2023-02-06T15:50:34.302Z,4.70
2023-02-06T15:53:16.427Z,4.70
2023-02-06T15:55:52.371Z,4.60
2023-02-06T15:58:20.413Z,4.60
2023-02-06T16:00:52.662Z,4.60
2023-02-06T16:03:23.562Z,4.50
2023-02-06T16:05:52.353Z,4.50
2023-02-06T16:08:27.817Z,4.40
2023-02-06T16:10:59.641Z,4.30
2023-02-06T16:13:29.306Z,4.20
2023-02-06T16:16:11.615Z,4.20
2023-02-06T16:18:39.991Z,4.10
2023-02-06T16:21:17.470Z,4.10
2023-02-06T16:23:49.404Z,4.00
2023-02-06T16:26:20.512Z,3.90
2023-02-06T16:28:52.961Z,3.90
2023-02-06T16:31:20.059Z,3.90
2023-02-06T16:33:49.516Z,3.90
2023-02-06T16:36:18.593Z,3.80
2023-02-06T16:38:54.013Z,3.80
2023-02-06T16:41:33.400Z,3.70
2023-02-06T16:44:01.553Z,3.60
2023-02-06T16:46:29.169Z,3.60
2023-02-06T16:48:56.577Z,3.50
2023-02-06T16:51:27.149Z,3.40
2023-02-06T16:53:53.946Z,3.40
2023-02-06T16:56:21.817Z,3.30
2023-02-06T16:58:49.502Z,3.30
2023-02-06T17:01:24.811Z,3.30
2023-02-06T17:03:53.021Z,3.30
2023-02-06T17:06:23.655Z,3.20
2023-02-06T17:08:52.979Z,3.10
2023-02-06T17:11:19.698Z,3.10
2023-02-06T17:13:46.544Z,3.00
2023-02-06T17:16:25.832Z,2.90
2023-02-06T17:18:53.315Z,2.80
2023-02-06T17:21:21.940Z,2.70
2023-02-06T17:23:50.467Z,2.70
2023-02-06T17:26:20.557Z,2.60
2023-02-06T17:28:48.267Z,2.60
2023-02-06T17:31:15.881Z,2.50
2023-02-06T17:33:42.624Z,2.50
2023-02-06T17:36:29.335Z,2.50
2023-02-06T17:39:00.025Z,2.50
2023-02-06T17:41:27.494Z,2.40
2023-02-06T17:43:54.503Z,2.40
2023-02-06T17:46:22.380Z,2.30
2023-02-06T17:48:49.197Z,2.30
2023-02-06T17:51:15.955Z,2.20
2023-02-06T17:53:42.748Z,2.10
2023-02-06T17:56:12.923Z,2.10
2023-02-06T17:58:40.792Z,2.00
2023-02-06T18:01:12.914Z,1.90
2023-02-06T18:03:40.449Z,1.90
2023-02-06T18:06:07.782Z,1.90
2023-02-06T18:08:34.739Z,1.90
2023-02-06T18:11:06.511Z,1.90
2023-02-06T18:13:33.952Z,1.90
2023-02-06T18:16:00.790Z,1.90
2023-02-06T18:18:27.709Z,1.90
2023-02-06T18:20:54.490Z,1.80
2023-02-06T18:24:10.152Z,1.70
2023-02-06T18:26:36.898Z,1.70
2023-02-06T18:29:05.348Z,1.70
2023-02-06T18:31:36.121Z,1.70
2023-02-06T18:34:07.679Z,1.70
2023-02-06T18:36:36.075Z,1.70
2023-02-06T18:39:04.090Z,1.70
2023-02-06T18:44:16.737Z,1.60
2023-02-06T18:46:43.725Z,1.60
2023-02-06T18:49:10.576Z,1.60
2023-02-06T18:51:37.409Z,1.60
2023-02-06T18:54:04.603Z,1.60
2023-02-06T18:56:32.388Z,1.50
2023-02-06T18:58:59.126Z,1.50
2023-02-06T19:01:26.055Z,1.40
2023-02-06T19:03:53.982Z,1.40
2023-02-06T19:06:28.915Z,1.40
2023-02-06T19:08:56.954Z,1.30
2023-02-06T19:11:23.866Z,1.30
2023-02-06T19:13:50.566Z,1.20
2023-02-06T19:16:18.989Z,1.20
2023-02-06T19:18:48.037Z,1.10
2023-02-06T19:21:18.400Z,1.10
2023-02-06T19:23:46.693Z,1.00
2023-02-06T19:26:15.555Z,1.00
2023-02-06T19:28:43.642Z,1.00
2023-02-06T19:31:12.204Z,1.00
2023-02-06T19:33:41.275Z,0.90
2023-02-06T19:36:10.122Z,0.90
2023-02-06T19:38:37.312Z,0.80
2023-02-06T19:41:20.350Z,0.70
2023-02-06T19:43:48.123Z,0.70
2023-02-06T19:46:18.820Z,0.70
2023-02-06T19:48:47.088Z,0.70
2023-02-06T19:51:16.822Z,0.60
2023-02-06T19:53:46.410Z,0.60
2023-02-06T19:56:17.845Z,0.50
2023-02-06T19:58:44.829Z,0.50
2023-02-06T20:01:13.758Z,0.40
2023-02-06T20:03:41.011Z,0.40
2023-02-06T20:06:10.628Z,0.30
2023-02-06T20:08:38.604Z,0.20
2023-02-06T20:11:11.833Z,0.20
2023-02-06T20:13:40.002Z,0.10
2023-02-06T20:16:13.981Z,0.10
2023-02-06T20:18:40.731Z,0.10
2023-02-06T20:21:27.727Z,0.00
2023-02-06T20:23:56.277Z,-0.10
2023-02-06T20:26:26.668Z,-0.20
2023-02-06T20:28:53.880Z,-0.20
2023-02-06T20:31:21.767Z,-0.20
2023-02-06T20:33:49.509Z,-0.20
2023-02-06T20:36:21.189Z,-0.20
2023-02-06T20:38:52.661Z,-0.30
2023-02-06T20:41:20.873Z,-0.30
2023-02-06T20:43:48.349Z,-0.30
2023-02-06T20:46:17.848Z,-0.30
2023-02-06T20:48:45.865Z,-0.40
2023-02-06T20:51:14.089Z,-0.60
2023-02-06T20:53:41.215Z,-0.60
2023-02-06T20:56:12.364Z,-0.60
2023-02-06T20:58:39.287Z,-0.60
2023-02-06T21:01:13.211Z,-0.70
2023-02-06T21:08:34.785Z,-0.70
2023-02-06T21:11:01.671Z,-0.70
2023-02-06T21:13:28.635Z,-0.80
2023-02-06T21:15:57.434Z,-0.80
2023-02-06T21:18:26.577Z,-0.90
2023-02-06T21:20:55.356Z,-1.00
2023-02-06T21:23:23.235Z,-1.00
2023-02-06T21:25:55.001Z,-1.00
2023-02-06T21:28:22.405Z,-1.00
2023-02-06T21:30:50.228Z,-1.00
2023-02-06T21:33:17.049Z,-1.10
2023-02-06T21:35:51.276Z,-1.00
2023-02-06T21:38:18.383Z,-1.00
2023-02-06T21:40:45.242Z,-1.10
2023-02-06T21:43:12.642Z,-1.20
2023-02-06T21:45:39.841Z,-1.20
2023-02-06T21:48:07.065Z,-1.30
2023-02-06T21:50:36.772Z,-1.40
2023-02-06T21:58:01.116Z,-1.60
2023-02-06T22:00:28.786Z,-1.70
2023-02-06T22:02:55.707Z,-1.60
2023-02-06T22:05:22.709Z,-1.60
2023-02-06T22:07:49.452Z,-1.70
2023-02-06T22:10:16.239Z,-1.70
2023-02-06T22:12:43.069Z,-1.70
2023-02-06T22:15:09.934Z,-1.80
2023-02-06T22:17:36.696Z,-1.80
2023-02-06T22:20:03.589Z,-1.90
2023-02-06T22:24:57.616Z,-2.00
2023-02-06T22:27:27.663Z,-1.90
2023-02-06T22:32:21.772Z,-1.80
2023-02-06T22:34:50.839Z,-1.80
2023-02-06T22:37:17.800Z,-1.70
2023-02-06T22:39:44.573Z,-1.70
2023-02-06T22:44:38.448Z,-1.70
2023-02-06T22:51:59.503Z,-1.70
2023-02-06T22:54:26.208Z,-1.60
2023-02-06T22:56:52.990Z,-1.60
2023-02-06T22:59:23.206Z,-1.60
2023-02-06T23:01:58.128Z,-1.60
2023-02-06T23:04:28.569Z,-1.60
2023-02-06T23:06:55.570Z,-1.60
2023-02-06T23:09:28.641Z,-1.60
2023-02-06T23:14:25.501Z,-1.80
2023-02-06T23:16:52.529Z,-1.80
2023-02-06T23:19:20.075Z,-1.80
2023-02-06T23:21:48.897Z,-1.80
2023-02-06T23:24:15.930Z,-1.80
2023-02-06T23:26:47.905Z,-1.90
2023-02-06T23:29:17.250Z,-1.90
2023-02-06T23:31:46.425Z,-1.90
2023-02-06T23:34:14.304Z,-1.90
2023-02-06T23:36:41.015Z,-1.90
2023-02-06T23:41:35.200Z,-2.10
2023-02-06T23:44:05.273Z,-2.10
2023-02-06T23:46:35.071Z,-2.10
2023-02-06T23:49:02.273Z,-2.10
2023-02-06T23:51:29.080Z,-2.10
2023-02-06T23:53:55.886Z,-2.10
2023-02-06T23:56:25.903Z,-2.10
2023-02-06T23:58:54.276Z,-2.10
